Boone, CO

2:04 AM MDT on July 23, 2014 (GMT -0600)
La Junta Municipal (KLHX) Elev 4239 ft | 38.05 °N, 103.51 °W | Change Station

Current weather conditions updated 11 minutes ago

Clear
Clear
71 °F
Feels Like 71 °F
N
4
Wind Variable Wind from North

Today is forecast to be nearly the same temperature as yesterday.

Today
High -- | Low -- °F
--% Chance of Precip.
Yesterday
High -- | Low -- °F
Precip. -- in
5:51 AM 8:14 PM
Waning Crescent, 12% visible
Pressure 30.05 in
Visibility 10.0 miles
Clouds Clear
Dew Point 61 °F
Humidity 70%
Rainfall 0.00 in
Snow Depth Not available.
UV 0 out of 12
Pollen 6.30 out of 12
Air Quality Not available.
Flu Activity Not available.
METAR KLHX 230753Z AUTO 36003KT 10SM CLR 22/16 A3025 RMK AO2 SLP174 T02170161

More Conditions Fewer Conditions

Pressure 30.05 in
Visibility 10.0 miles
Clouds Clear
Dew Point 61 °F
Humidity 70%
Rainfall 0.00 in
Snow Depth Not available.
UV 0 out of 12
Pollen 6.30 out of 12
Air Quality Not available.
Flu Activity Not available.
METAR KLHX 230753Z AUTO 36003KT 10SM CLR 22/16 A3025 RMK AO2 SLP174 T02170161

More Conditions Fewer Conditions

10-Day Weather Forecast

Almanac

Astronomy

Jul. 23, 2014 Rise Set
Actual Time 5:51 AM MDT 8:14 PM MDT
Civil Twilight 5:21 AM MDT 8:44 PM MDT
Nautical Twilight 4:44 AM MDT 9:21 PM MDT
Astronomical Twilight 4:03 AM MDT 10:02 PM MDT
Moon 3:12 AM MDT 5:45 PM MDT
Length of Visible Light 15h 22m
Length of Day
14h 22m
Tomorrow will be 1m 36s shorter.
Waning Crescent, 12% of the Moon is Illuminated
Today
Waning Crescent
Jul 26
New
Aug 3
First Quarter
Aug 10
Full
Aug 17
Last Quarter

Today's Extremes

State Highs State Lows

Community

WunderPhotos

Upload Photos

1,736,529 photos uploaded!

Nearby

Snow Depth

Station Depth Elevation
Medano Pass 0 in 9620 ft
South Colony 0 in 10800 ft
Ute Creek 0 in 10650 ft
Apishapa 0 in 10000 ft
Trinchera 1 in 10860 ft

Earthquake Activity

City Distance Mag. Time & Date
No recent earthquake activity has been reported nearby.
Minimum magnitude displayed is 2.5.

Coastal Water Temperatures

Place Temperature
No Stations Reporting

Nearby Weather Stations

Station Location Temp. Heat Index Dew Point Humidity Wind Precip. Elev Updated Type
21 Miles NE of Airport, Pueblo, CO 66.8 °F - 57 °F 70% NNE  at  10.0 mph 0.00 in / hr 5000 ft 2:01 AM MDT Normal
Fowler Airport, Fowler, CO 67.0 °F - 59 °F 75% SW  at  1.0 mph 0.00 in / hr 4450 ft 2:03 AM MDT Rapid Fire
Belmont - Boomer Weather, Pueblo, CO 75.3 °F 78 °F 49 °F 39% WNW  at  3.0 mph 0.00 in / hr 4869 ft 2:04 AM MDT Rapid Fire
Manzanola, CO 65.7 °F - 56 °F 71% South  at  0.0 mph 0.00 in / hr 4308 ft 2:00 AM MDT Normal
West Ridge (Northwest Pueblo), Pueblo, CO 76.6 °F 78 °F 48 °F 36% WNW  at  6.0 mph - / hr 4911 ft 1:51 AM MDT Normal
SouthSide, Pueblo, CO 78.5 °F 79 °F 49 °F 36% WNW  at  5.8 mph 0.00 in / hr 4859 ft 2:04 AM MDT Rapid Fire

Show More Stations Show Fewer Stations